sensor_id;sensor_type;location;lat;lon;timestamp;temperature;humidity
3713;DHT22;1872;51.406;6.856;2023-07-30T00:02:18;16.50;99.90
3713;DHT22;1872;51.406;6.856;2023-07-30T00:04:45;16.50;99.90
3713;DHT22;1872;51.406;6.856;2023-07-30T00:07:11;16.50;99.90
3713;DHT22;1872;51.406;6.856;2023-07-30T00:09:37;16.40;99.90
3713;DHT22;1872;51.406;6.856;2023-07-30T00:12:07;16.40;99.90
3713;DHT22;1872;51.406;6.856;2023-07-30T00:14:33;16.30;99.90
3713;DHT22;1872;51.406;6.856;2023-07-30T00:16:59;16.30;99.90
3713;DHT22;1872;51.406;6.856;2023-07-30T00:19:25;16.20;99.90
3713;DHT22;1872;51.406;6.856;2023-07-30T00:21:50;16.20;99.90
3713;DHT22;1872;51.406;6.856;2023-07-30T00:24:16;16.10;99.90
3713;DHT22;1872;51.406;6.856;2023-07-30T00:26:42;16.10;99.90
3713;DHT22;1872;51.406;6.856;2023-07-30T00:29:07;16.00;99.90
3713;DHT22;1872;51.406;6.856;2023-07-30T00:31:33;16.00;99.90
3713;DHT22;1872;51.406;6.856;2023-07-30T00:33:58;15.90;99.90
3713;DHT22;1872;51.406;6.856;2023-07-30T00:36:24;15.90;99.90
3713;DHT22;1872;51.406;6.856;2023-07-30T00:38:50;15.80;99.90
3713;DHT22;1872;51.406;6.856;2023-07-30T00:41:15;15.80;99.90
3713;DHT22;1872;51.406;6.856;2023-07-30T00:43:41;15.70;99.90
3713;DHT22;1872;51.406;6.856;2023-07-30T00:46:07;15.70;99.90
3713;DHT22;1872;51.406;6.856;2023-07-30T00:48:33;15.70;99.90
3713;DHT22;1872;51.406;6.856;2023-07-30T00:50:59;15.60;99.90
3713;DHT22;1872;51.406;6.856;2023-07-30T00:53:26;15.60;99.90
3713;DHT22;1872;51.406;6.856;2023-07-30T00:55:54;15.60;99.90
3713;DHT22;1872;51.406;6.856;2023-07-30T00:58:21;15.60;99.90
3713;DHT22;1872;51.406;6.856;2023-07-30T01:00:47;15.50;99.90
3713;DHT22;1872;51.406;6.856;2023-07-30T01:03:13;15.50;99.90
3713;DHT22;1872;51.406;6.856;2023-07-30T01:05:39;15.50;99.90
3713;DHT22;1872;51.406;6.856;2023-07-30T01:08:05;15.50;99.90
3713;DHT22;1872;51.406;6.856;2023-07-30T01:10:32;15.50;99.90
3713;DHT22;1872;51.406;6.856;2023-07-30T01:12:59;15.50;99.90
3713;DHT22;1872;51.406;6.856;2023-07-30T01:15:27;15.50;99.90
3713;DHT22;1872;51.406;6.856;2023-07-30T01:17:53;15.50;99.90
3713;DHT22;1872;51.406;6.856;2023-07-30T01:20:21;15.40;99.90
3713;DHT22;1872;51.406;6.856;2023-07-30T01:22:46;15.40;99.90
3713;DHT22;1872;51.406;6.856;2023-07-30T01:25:13;15.40;99.90
3713;DHT22;1872;51.406;6.856;2023-07-30T01:27:43;15.40;99.90
3713;DHT22;1872;51.406;6.856;2023-07-30T01:30:14;15.40;99.90
3713;DHT22;1872;51.406;6.856;2023-07-30T01:32:42;15.40;99.90
3713;DHT22;1872;51.406;6.856;2023-07-30T01:35:08;15.40;99.90
3713;DHT22;1872;51.406;6.856;2023-07-30T01:37:36;15.30;99.90
3713;DHT22;1872;51.406;6.856;2023-07-30T01:40:05;15.30;99.90
3713;DHT22;1872;51.406;6.856;2023-07-30T01:42:31;15.30;99.90
3713;DHT22;1872;51.406;6.856;2023-07-30T01:44:57;15.30;99.90
3713;DHT22;1872;51.406;6.856;2023-07-30T01:47:22;15.20;99.90
3713;DHT22;1872;51.406;6.856;2023-07-30T01:49:48;15.20;99.90
3713;DHT22;1872;51.406;6.856;2023-07-30T01:52:14;15.20;99.90
3713;DHT22;1872;51.406;6.856;2023-07-30T01:54:39;15.20;99.90
3713;DHT22;1872;51.406;6.856;2023-07-30T01:57:05;15.20;99.90
3713;DHT22;1872;51.406;6.856;2023-07-30T01:59:31;15.10;99.90
3713;DHT22;1872;51.406;6.856;2023-07-30T02:01:57;15.20;99.90
3713;DHT22;1872;51.406;6.856;2023-07-30T02:04:22;15.10;99.90
3713;DHT22;1872;51.406;6.856;2023-07-30T02:06:48;15.20;99.90
3713;DHT22;1872;51.406;6.856;2023-07-30T02:09:15;15.10;99.90
3713;DHT22;1872;51.406;6.856;2023-07-30T02:11:40;15.10;99.90
3713;DHT22;1872;51.406;6.856;2023-07-30T02:14:06;15.10;99.90
3713;DHT22;1872;51.406;6.856;2023-07-30T02:16:31;15.10;99.90
3713;DHT22;1872;51.406;6.856;2023-07-30T02:18:57;15.10;99.90
3713;DHT22;1872;51.406;6.856;2023-07-30T02:21:23;15.10;99.90
3713;DHT22;1872;51.406;6.856;2023-07-30T02:23:48;15.00;99.90
3713;DHT22;1872;51.406;6.856;2023-07-30T02:26:14;15.00;99.90
3713;DHT22;1872;51.406;6.856;2023-07-30T02:28:40;15.10;99.90
3713;DHT22;1872;51.406;6.856;2023-07-30T02:31:05;15.00;99.90
3713;DHT22;1872;51.406;6.856;2023-07-30T02:33:31;15.00;99.90
3713;DHT22;1872;51.406;6.856;2023-07-30T02:35:56;15.00;99.90
3713;DHT22;1872;51.406;6.856;2023-07-30T02:38:22;15.00;99.90
3713;DHT22;1872;51.406;6.856;2023-07-30T02:40:48;14.90;99.90
3713;DHT22;1872;51.406;6.856;2023-07-30T02:43:13;14.90;99.90
3713;DHT22;1872;51.406;6.856;2023-07-30T02:45:39;14.90;99.90
3713;DHT22;1872;51.406;6.856;2023-07-30T02:48:04;14.90;99.90
3713;DHT22;1872;51.406;6.856;2023-07-30T02:50:30;14.90;99.90
3713;DHT22;1872;51.406;6.856;2023-07-30T02:52:56;14.90;99.90
3713;DHT22;1872;51.406;6.856;2023-07-30T02:55:21;14.80;99.90
3713;DHT22;1872;51.406;6.856;2023-07-30T02:57:47;14.80;99.90
3713;DHT22;1872;51.406;6.856;2023-07-30T03:00:13;14.80;99.90
3713;DHT22;1872;51.406;6.856;2023-07-30T03:02:39;14.80;99.90
3713;DHT22;1872;51.406;6.856;2023-07-30T03:05:05;14.70;99.90
3713;DHT22;1872;51.406;6.856;2023-07-30T03:07:31;14.70;99.90
3713;DHT22;1872;51.406;6.856;2023-07-30T03:09:56;14.70;99.90
3713;DHT22;1872;51.406;6.856;2023-07-30T03:12:22;14.70;99.90
3713;DHT22;1872;51.406;6.856;2023-07-30T03:14:48;14.70;99.90
3713;DHT22;1872;51.406;6.856;2023-07-30T03:17:13;14.70;99.90
3713;DHT22;1872;51.406;6.856;2023-07-30T03:19:39;14.60;99.90
3713;DHT22;1872;51.406;6.856;2023-07-30T03:22:04;14.60;99.90
3713;DHT22;1872;51.406;6.856;2023-07-30T03:24:30;14.60;99.90
3713;DHT22;1872;51.406;6.856;2023-07-30T03:26:56;14.60;99.90
3713;DHT22;1872;51.406;6.856;2023-07-30T03:29:21;14.60;99.90
3713;DHT22;1872;51.406;6.856;2023-07-30T03:31:47;14.50;99.90
3713;DHT22;1872;51.406;6.856;2023-07-30T03:34:12;14.50;99.90
3713;DHT22;1872;51.406;6.856;2023-07-30T03:36:38;14.50;99.90
3713;DHT22;1872;51.406;6.856;2023-07-30T03:39:04;14.50;99.90
3713;DHT22;1872;51.406;6.856;2023-07-30T03:41:29;14.50;99.90
3713;DHT22;1872;51.406;6.856;2023-07-30T03:43:55;14.40;99.90
3713;DHT22;1872;51.406;6.856;2023-07-30T03:46:22;14.40;99.90
3713;DHT22;1872;51.406;6.856;2023-07-30T03:48:48;14.40;99.90
3713;DHT22;1872;51.406;6.856;2023-07-30T03:51:14;14.40;99.90
3713;DHT22;1872;51.406;6.856;2023-07-30T03:53:39;14.40;99.90
3713;DHT22;1872;51.406;6.856;2023-07-30T03:56:05;14.40;99.90
3713;DHT22;1872;51.406;6.856;2023-07-30T03:58:31;14.40;99.90
3713;DHT22;1872;51.406;6.856;2023-07-30T04:00:58;14.40;99.90
3713;DHT22;1872;51.406;6.856;2023-07-30T04:03:23;14.40;99.90
3713;DHT22;1872;51.406;6.856;2023-07-30T04:05:49;14.40;99.90
3713;DHT22;1872;51.406;6.856;2023-07-30T04:08:16;14.40;99.90
3713;DHT22;1872;51.406;6.856;2023-07-30T04:10:41;14.40;99.90
3713;DHT22;1872;51.406;6.856;2023-07-30T04:13:07;14.40;99.90
3713;DHT22;1872;51.406;6.856;2023-07-30T04:15:33;14.40;99.90
3713;DHT22;1872;51.406;6.856;2023-07-30T04:17:59;14.50;99.90
3713;DHT22;1872;51.406;6.856;2023-07-30T04:20:25;14.50;99.90
3713;DHT22;1872;51.406;6.856;2023-07-30T04:22:52;14.60;99.90
3713;DHT22;1872;51.406;6.856;2023-07-30T04:25:17;14.60;99.90
3713;DHT22;1872;51.406;6.856;2023-07-30T04:27:43;14.70;99.90
3713;DHT22;1872;51.406;6.856;2023-07-30T04:30:09;14.70;99.90
3713;DHT22;1872;51.406;6.856;2023-07-30T04:32:35;14.80;99.90
3713;DHT22;1872;51.406;6.856;2023-07-30T04:35:01;14.80;99.90
3713;DHT22;1872;51.406;6.856;2023-07-30T04:37:28;14.90;99.90
3713;DHT22;1872;51.406;6.856;2023-07-30T04:39:53;14.90;99.90
3713;DHT22;1872;51.406;6.856;2023-07-30T04:42:19;15.00;99.90
3713;DHT22;1872;51.406;6.856;2023-07-30T04:44:45;15.00;99.90
3713;DHT22;1872;51.406;6.856;2023-07-30T04:47:10;15.10;99.90
3713;DHT22;1872;51.406;6.856;2023-07-30T04:49:36;15.20;99.90
3713;DHT22;1872;51.406;6.856;2023-07-30T04:52:04;15.20;99.90
3713;DHT22;1872;51.406;6.856;2023-07-30T04:54:30;15.20;99.90
3713;DHT22;1872;51.406;6.856;2023-07-30T04:56:56;15.30;99.90
3713;DHT22;1872;51.406;6.856;2023-07-30T04:59:21;15.30;99.90
3713;DHT22;1872;51.406;6.856;2023-07-30T05:01:47;15.40;99.90
3713;DHT22;1872;51.406;6.856;2023-07-30T05:04:12;15.40;99.90
3713;DHT22;1872;51.406;6.856;2023-07-30T05:06:41;15.40;99.90
3713;DHT22;1872;51.406;6.856;2023-07-30T05:09:07;15.50;99.90
3713;DHT22;1872;51.406;6.856;2023-07-30T05:11:33;15.50;99.90
3713;DHT22;1872;51.406;6.856;2023-07-30T05:13:58;15.50;99.90
3713;DHT22;1872;51.406;6.856;2023-07-30T05:16:24;15.50;99.90
3713;DHT22;1872;51.406;6.856;2023-07-30T05:18:49;15.50;99.90
3713;DHT22;1872;51.406;6.856;2023-07-30T05:21:15;15.50;99.90
3713;DHT22;1872;51.406;6.856;2023-07-30T05:23:41;15.50;99.90
3713;DHT22;1872;51.406;6.856;2023-07-30T05:26:06;15.50;99.90
3713;DHT22;1872;51.406;6.856;2023-07-30T05:28:32;15.50;99.90
3713;DHT22;1872;51.406;6.856;2023-07-30T05:30:58;15.60;99.90
3713;DHT22;1872;51.406;6.856;2023-07-30T05:33:24;15.50;99.90
3713;DHT22;1872;51.406;6.856;2023-07-30T05:35:49;15.60;99.90
3713;DHT22;1872;51.406;6.856;2023-07-30T05:38:15;15.60;99.90
3713;DHT22;1872;51.406;6.856;2023-07-30T05:40:41;15.60;99.90
3713;DHT22;1872;51.406;6.856;2023-07-30T05:43:07;15.60;99.90
3713;DHT22;1872;51.406;6.856;2023-07-30T05:45:34;15.60;99.90
3713;DHT22;1872;51.406;6.856;2023-07-30T05:48:00;15.70;99.90
3713;DHT22;1872;51.406;6.856;2023-07-30T05:50:25;15.70;99.90
3713;DHT22;1872;51.406;6.856;2023-07-30T05:52:51;15.70;99.90
3713;DHT22;1872;51.406;6.856;2023-07-30T05:55:16;15.70;99.90
3713;DHT22;1872;51.406;6.856;2023-07-30T05:57:42;15.70;99.90
3713;DHT22;1872;51.406;6.856;2023-07-30T06:00:11;15.70;99.90
3713;DHT22;1872;51.406;6.856;2023-07-30T06:02:37;15.70;99.90
3713;DHT22;1872;51.406;6.856;2023-07-30T06:05:03;15.80;99.90
3713;DHT22;1872;51.406;6.856;2023-07-30T06:07:29;15.80;99.90
3713;DHT22;1872;51.406;6.856;2023-07-30T06:09:55;15.80;99.90
3713;DHT22;1872;51.406;6.856;2023-07-30T06:12:21;15.80;99.90
3713;DHT22;1872;51.406;6.856;2023-07-30T06:14:48;15.80;99.90
3713;DHT22;1872;51.406;6.856;2023-07-30T06:17:14;15.90;99.90
3713;DHT22;1872;51.406;6.856;2023-07-30T06:19:39;15.90;99.90
3713;DHT22;1872;51.406;6.856;2023-07-30T06:22:05;15.90;99.90
3713;DHT22;1872;51.406;6.856;2023-07-30T06:24:31;15.90;99.90
3713;DHT22;1872;51.406;6.856;2023-07-30T06:26:56;15.90;99.90
3713;DHT22;1872;51.406;6.856;2023-07-30T06:29:22;15.90;99.90
3713;DHT22;1872;51.406;6.856;2023-07-30T06:31:48;15.90;99.90
3713;DHT22;1872;51.406;6.856;2023-07-30T06:34:16;16.00;99.90
3713;DHT22;1872;51.406;6.856;2023-07-30T06:36:42;16.00;99.90
3713;DHT22;1872;51.406;6.856;2023-07-30T06:39:08;16.00;99.90
3713;DHT22;1872;51.406;6.856;2023-07-30T06:41:33;16.00;99.90
3713;DHT22;1872;51.406;6.856;2023-07-30T06:44:00;16.00;99.90
3713;DHT22;1872;51.406;6.856;2023-07-30T06:46:25;16.00;99.90
3713;DHT22;1872;51.406;6.856;2023-07-30T06:48:51;16.00;99.90
3713;DHT22;1872;51.406;6.856;2023-07-30T06:51:19;16.10;99.90
3713;DHT22;1872;51.406;6.856;2023-07-30T06:53:45;16.10;99.90
3713;DHT22;1872;51.406;6.856;2023-07-30T06:56:10;16.10;99.90
3713;DHT22;1872;51.406;6.856;2023-07-30T06:58:36;16.10;99.90
3713;DHT22;1872;51.406;6.856;2023-07-30T07:01:02;16.20;99.90
3713;DHT22;1872;51.406;6.856;2023-07-30T07:03:28;16.20;99.90
3713;DHT22;1872;51.406;6.856;2023-07-30T07:05:57;16.20;99.90
3713;DHT22;1872;51.406;6.856;2023-07-30T07:08:23;16.10;99.90
3713;DHT22;1872;51.406;6.856;2023-07-30T07:10:49;16.10;99.90
3713;DHT22;1872;51.406;6.856;2023-07-30T07:13:15;16.10;99.90
3713;DHT22;1872;51.406;6.856;2023-07-30T07:15:41;16.10;99.90
3713;DHT22;1872;51.406;6.856;2023-07-30T07:18:07;16.10;99.90
3713;DHT22;1872;51.406;6.856;2023-07-30T07:20:33;16.10;99.90
3713;DHT22;1872;51.406;6.856;2023-07-30T07:22:59;16.20;99.90
3713;DHT22;1872;51.406;6.856;2023-07-30T07:25:24;16.20;99.90
3713;DHT22;1872;51.406;6.856;2023-07-30T07:27:50;16.30;99.90
3713;DHT22;1872;51.406;6.856;2023-07-30T07:30:16;16.30;99.90
3713;DHT22;1872;51.406;6.856;2023-07-30T07:32:41;16.40;99.90
3713;DHT22;1872;51.406;6.856;2023-07-30T07:35:07;16.60;99.90
3713;DHT22;1872;51.406;6.856;2023-07-30T07:37:33;16.70;99.90
3713;DHT22;1872;51.406;6.856;2023-07-30T07:39:59;16.80;99.90
3713;DHT22;1872;51.406;6.856;2023-07-30T07:42:25;16.90;99.90
3713;DHT22;1872;51.406;6.856;2023-07-30T07:44:50;17.00;99.90
3713;DHT22;1872;51.406;6.856;2023-07-30T07:47:16;17.10;99.90
3713;DHT22;1872;51.406;6.856;2023-07-30T07:49:42;17.20;99.90
3713;DHT22;1872;51.406;6.856;2023-07-30T07:52:08;17.20;99.90
3713;DHT22;1872;51.406;6.856;2023-07-30T07:54:34;17.20;99.90
3713;DHT22;1872;51.406;6.856;2023-07-30T07:57:00;17.20;99.90
3713;DHT22;1872;51.406;6.856;2023-07-30T07:59:34;17.20;99.90
3713;DHT22;1872;51.406;6.856;2023-07-30T08:01:59;17.20;99.90
3713;DHT22;1872;51.406;6.856;2023-07-30T08:04:25;17.20;99.90
3713;DHT22;1872;51.406;6.856;2023-07-30T08:06:52;17.20;99.90
3713;DHT22;1872;51.406;6.856;2023-07-30T08:09:18;17.20;99.90
3713;DHT22;1872;51.406;6.856;2023-07-30T08:11:43;17.20;99.90
3713;DHT22;1872;51.406;6.856;2023-07-30T08:14:09;17.20;99.90
3713;DHT22;1872;51.406;6.856;2023-07-30T08:16:35;17.20;99.90
3713;DHT22;1872;51.406;6.856;2023-07-30T08:19:03;17.20;99.90
3713;DHT22;1872;51.406;6.856;2023-07-30T08:21:29;17.30;99.90
3713;DHT22;1872;51.406;6.856;2023-07-30T08:23:55;17.30;99.90
3713;DHT22;1872;51.406;6.856;2023-07-30T08:26:20;17.30;99.90
3713;DHT22;1872;51.406;6.856;2023-07-30T08:28:46;17.40;99.90
3713;DHT22;1872;51.406;6.856;2023-07-30T08:31:12;17.40;99.90
3713;DHT22;1872;51.406;6.856;2023-07-30T08:33:37;17.50;99.90
3713;DHT22;1872;51.406;6.856;2023-07-30T08:36:03;17.60;99.90
3713;DHT22;1872;51.406;6.856;2023-07-30T08:38:29;17.70;99.90
3713;DHT22;1872;51.406;6.856;2023-07-30T08:40:55;17.80;99.90
3713;DHT22;1872;51.406;6.856;2023-07-30T08:43:24;17.90;99.90
3713;DHT22;1872;51.406;6.856;2023-07-30T08:45:49;18.00;99.90
3713;DHT22;1872;51.406;6.856;2023-07-30T08:48:15;18.00;99.90
3713;DHT22;1872;51.406;6.856;2023-07-30T08:50:42;18.00;99.90
3713;DHT22;1872;51.406;6.856;2023-07-30T08:53:08;18.00;99.90
3713;DHT22;1872;51.406;6.856;2023-07-30T08:55:34;18.10;99.90
3713;DHT22;1872;51.406;6.856;2023-07-30T08:58:01;18.10;99.90
3713;DHT22;1872;51.406;6.856;2023-07-30T09:00:31;18.00;99.90
3713;DHT22;1872;51.406;6.856;2023-07-30T09:03:00;18.20;99.90
3713;DHT22;1872;51.406;6.856;2023-07-30T09:05:28;18.20;99.90
3713;DHT22;1872;51.406;6.856;2023-07-30T09:07:58;18.40;99.90
3713;DHT22;1872;51.406;6.856;2023-07-30T09:10:25;18.60;99.90
3713;DHT22;1872;51.406;6.856;2023-07-30T09:12:56;18.80;99.90
3713;DHT22;1872;51.406;6.856;2023-07-30T09:15:31;19.00;99.90
3713;DHT22;1872;51.406;6.856;2023-07-30T09:17:58;19.10;99.90
3713;DHT22;1872;51.406;6.856;2023-07-30T09:20:23;19.20;99.90
3713;DHT22;1872;51.406;6.856;2023-07-30T09:22:49;19.30;99.90
3713;DHT22;1872;51.406;6.856;2023-07-30T09:25:18;19.40;99.90
3713;DHT22;1872;51.406;6.856;2023-07-30T09:27:49;19.60;99.90
3713;DHT22;1872;51.406;6.856;2023-07-30T09:30:21;19.90;99.90
3713;DHT22;1872;51.406;6.856;2023-07-30T09:32:59;20.10;99.90
3713;DHT22;1872;51.406;6.856;2023-07-30T09:35:26;20.30;99.90
3713;DHT22;1872;51.406;6.856;2023-07-30T09:38:03;20.40;99.90
3713;DHT22;1872;51.406;6.856;2023-07-30T09:40:33;20.50;99.90
3713;DHT22;1872;51.406;6.856;2023-07-30T09:43:00;20.60;99.90
3713;DHT22;1872;51.406;6.856;2023-07-30T09:45:27;20.60;99.90
3713;DHT22;1872;51.406;6.856;2023-07-30T09:47:54;20.70;99.90
3713;DHT22;1872;51.406;6.856;2023-07-30T09:50:22;20.70;99.90
3713;DHT22;1872;51.406;6.856;2023-07-30T09:52:49;20.70;99.90
3713;DHT22;1872;51.406;6.856;2023-07-30T09:55:15;20.80;99.90
3713;DHT22;1872;51.406;6.856;2023-07-30T09:57:41;20.80;99.90
3713;DHT22;1872;51.406;6.856;2023-07-30T10:00:07;20.70;99.90
3713;DHT22;1872;51.406;6.856;2023-07-30T10:02:39;20.70;99.90
3713;DHT22;1872;51.406;6.856;2023-07-30T10:05:18;20.60;99.90
3713;DHT22;1872;51.406;6.856;2023-07-30T10:08:00;20.70;99.90
3713;DHT22;1872;51.406;6.856;2023-07-30T10:10:28;20.80;99.90
3713;DHT22;1872;51.406;6.856;2023-07-30T10:12:59;20.90;99.90
3713;DHT22;1872;51.406;6.856;2023-07-30T10:15:25;21.00;99.90
3713;DHT22;1872;51.406;6.856;2023-07-30T10:17:52;21.00;99.90
3713;DHT22;1872;51.406;6.856;2023-07-30T10:20:26;21.00;99.90
3713;DHT22;1872;51.406;6.856;2023-07-30T10:22:57;21.10;99.90
3713;DHT22;1872;51.406;6.856;2023-07-30T10:25:43;21.10;99.90
3713;DHT22;1872;51.406;6.856;2023-07-30T10:30:59;20.80;99.90
3713;DHT22;1872;51.406;6.856;2023-07-30T10:33:49;20.70;99.90
3713;DHT22;1872;51.406;6.856;2023-07-30T10:36:30;20.50;99.90
3713;DHT22;1872;51.406;6.856;2023-07-30T10:38:56;20.40;99.90
3713;DHT22;1872;51.406;6.856;2023-07-30T10:41:22;20.40;99.90
3713;DHT22;1872;51.406;6.856;2023-07-30T10:43:49;20.40;99.90
3713;DHT22;1872;51.406;6.856;2023-07-30T10:46:17;20.40;99.90
3713;DHT22;1872;51.406;6.856;2023-07-30T10:48:45;20.50;99.90
3713;DHT22;1872;51.406;6.856;2023-07-30T10:51:20;20.60;99.90
3713;DHT22;1872;51.406;6.856;2023-07-30T10:53:47;20.70;99.90
3713;DHT22;1872;51.406;6.856;2023-07-30T10:56:16;20.80;99.90
3713;DHT22;1872;51.406;6.856;2023-07-30T10:58:42;20.80;99.90
3713;DHT22;1872;51.406;6.856;2023-07-30T11:01:09;20.90;99.90
3713;DHT22;1872;51.406;6.856;2023-07-30T11:03:35;21.10;99.90
3713;DHT22;1872;51.406;6.856;2023-07-30T11:06:02;21.10;99.90
3713;DHT22;1872;51.406;6.856;2023-07-30T11:08:40;21.10;99.90
3713;DHT22;1872;51.406;6.856;2023-07-30T11:11:09;21.10;99.90
3713;DHT22;1872;51.406;6.856;2023-07-30T11:13:40;21.10;99.90
3713;DHT22;1872;51.406;6.856;2023-07-30T11:16:07;21.10;99.90
3713;DHT22;1872;51.406;6.856;2023-07-30T11:18:34;21.00;99.90
3713;DHT22;1872;51.406;6.856;2023-07-30T11:21:07;21.10;99.90
3713;DHT22;1872;51.406;6.856;2023-07-30T11:23:34;21.10;99.90
3713;DHT22;1872;51.406;6.856;2023-07-30T11:26:01;21.10;99.90
3713;DHT22;1872;51.406;6.856;2023-07-30T11:28:37;21.10;99.90
3713;DHT22;1872;51.406;6.856;2023-07-30T11:33:29;21.20;99.90
3713;DHT22;1872;51.406;6.856;2023-07-30T11:35:56;21.30;99.90
3713;DHT22;1872;51.406;6.856;2023-07-30T11:38:24;21.30;99.90
3713;DHT22;1872;51.406;6.856;2023-07-30T11:40:51;21.30;99.90
3713;DHT22;1872;51.406;6.856;2023-07-30T11:43:17;21.40;99.90
3713;DHT22;1872;51.406;6.856;2023-07-30T11:45:44;21.50;99.90
3713;DHT22;1872;51.406;6.856;2023-07-30T11:48:11;21.50;99.90
3713;DHT22;1872;51.406;6.856;2023-07-30T11:50:51;21.50;99.90
3713;DHT22;1872;51.406;6.856;2023-07-30T11:53:17;21.60;99.90
3713;DHT22;1872;51.406;6.856;2023-07-30T11:55:44;21.60;99.90
3713;DHT22;1872;51.406;6.856;2023-07-30T11:58:12;21.60;99.90
3713;DHT22;1872;51.406;6.856;2023-07-30T12:00:43;21.60;99.90
3713;DHT22;1872;51.406;6.856;2023-07-30T12:03:11;21.60;99.90
3713;DHT22;1872;51.406;6.856;2023-07-30T12:05:38;21.60;99.90
3713;DHT22;1872;51.406;6.856;2023-07-30T12:08:06;21.50;99.90
3713;DHT22;1872;51.406;6.856;2023-07-30T12:10:46;21.50;99.90
3713;DHT22;1872;51.406;6.856;2023-07-30T12:13:18;21.50;99.90
3713;DHT22;1872;51.406;6.856;2023-07-30T12:15:51;21.50;99.90
3713;DHT22;1872;51.406;6.856;2023-07-30T12:18:18;21.50;99.90
3713;DHT22;1872;51.406;6.856;2023-07-30T12:20:44;21.60;99.90
3713;DHT22;1872;51.406;6.856;2023-07-30T12:23:10;21.60;99.90
3713;DHT22;1872;51.406;6.856;2023-07-30T12:25:36;21.50;99.90
3713;DHT22;1872;51.406;6.856;2023-07-30T12:28:01;21.50;99.90
3713;DHT22;1872;51.406;6.856;2023-07-30T12:30:27;21.50;99.90
3713;DHT22;1872;51.406;6.856;2023-07-30T12:32:53;21.50;99.90
3713;DHT22;1872;51.406;6.856;2023-07-30T12:35:19;21.50;99.90
3713;DHT22;1872;51.406;6.856;2023-07-30T12:37:45;21.50;99.90
3713;DHT22;1872;51.406;6.856;2023-07-30T12:40:11;21.40;99.90
3713;DHT22;1872;51.406;6.856;2023-07-30T12:42:37;21.40;99.90
3713;DHT22;1872;51.406;6.856;2023-07-30T12:45:03;21.40;99.90
3713;DHT22;1872;51.406;6.856;2023-07-30T12:47:28;21.30;99.90
3713;DHT22;1872;51.406;6.856;2023-07-30T12:49:54;21.30;99.90
3713;DHT22;1872;51.406;6.856;2023-07-30T12:52:20;21.30;99.90
3713;DHT22;1872;51.406;6.856;2023-07-30T12:54:45;21.30;99.90
3713;DHT22;1872;51.406;6.856;2023-07-30T12:57:11;21.30;99.90
3713;DHT22;1872;51.406;6.856;2023-07-30T12:59:37;21.30;99.90
3713;DHT22;1872;51.406;6.856;2023-07-30T13:02:03;21.50;99.90
3713;DHT22;1872;51.406;6.856;2023-07-30T13:04:29;21.50;99.90
3713;DHT22;1872;51.406;6.856;2023-07-30T13:06:55;21.50;99.90
3713;DHT22;1872;51.406;6.856;2023-07-30T13:09:21;21.60;99.90
3713;DHT22;1872;51.406;6.856;2023-07-30T13:11:47;21.60;99.90
3713;DHT22;1872;51.406;6.856;2023-07-30T13:14:13;21.60;99.90
3713;DHT22;1872;51.406;6.856;2023-07-30T13:16:38;21.60;99.90
3713;DHT22;1872;51.406;6.856;2023-07-30T13:19:04;21.60;99.90
3713;DHT22;1872;51.406;6.856;2023-07-30T13:21:30;21.50;99.90
3713;DHT22;1872;51.406;6.856;2023-07-30T13:23:59;21.50;99.90
3713;DHT22;1872;51.406;6.856;2023-07-30T13:26:24;21.50;99.90
3713;DHT22;1872;51.406;6.856;2023-07-30T13:28:50;21.50;99.90
3713;DHT22;1872;51.406;6.856;2023-07-30T13:31:15;21.40;99.90
3713;DHT22;1872;51.406;6.856;2023-07-30T13:33:41;21.40;99.90
3713;DHT22;1872;51.406;6.856;2023-07-30T13:36:07;21.40;99.90
3713;DHT22;1872;51.406;6.856;2023-07-30T13:38:34;21.40;99.90
3713;DHT22;1872;51.406;6.856;2023-07-30T13:40:59;21.40;99.90
3713;DHT22;1872;51.406;6.856;2023-07-30T13:43:25;21.50;99.90
3713;DHT22;1872;51.406;6.856;2023-07-30T13:45:51;21.50;99.90
3713;DHT22;1872;51.406;6.856;2023-07-30T13:48:18;21.50;99.90
3713;DHT22;1872;51.406;6.856;2023-07-30T13:50:43;21.50;99.90
3713;DHT22;1872;51.406;6.856;2023-07-30T13:53:09;21.50;99.90
3713;DHT22;1872;51.406;6.856;2023-07-30T13:55:35;21.60;99.90
3713;DHT22;1872;51.406;6.856;2023-07-30T13:58:02;21.60;99.90
3713;DHT22;1872;51.406;6.856;2023-07-30T14:00:29;21.60;99.90
3713;DHT22;1872;51.406;6.856;2023-07-30T14:02:54;21.50;99.90
3713;DHT22;1872;51.406;6.856;2023-07-30T14:05:20;21.40;99.90
3713;DHT22;1872;51.406;6.856;2023-07-30T14:07:45;21.30;99.90
3713;DHT22;1872;51.406;6.856;2023-07-30T14:10:12;21.30;99.90
3713;DHT22;1872;51.406;6.856;2023-07-30T14:12:37;21.20;99.90
3713;DHT22;1872;51.406;6.856;2023-07-30T14:15:03;21.20;99.90
3713;DHT22;1872;51.406;6.856;2023-07-30T14:17:31;21.10;99.90
3713;DHT22;1872;51.406;6.856;2023-07-30T14:19:56;21.10;99.90
3713;DHT22;1872;51.406;6.856;2023-07-30T14:22:22;21.00;99.90
3713;DHT22;1872;51.406;6.856;2023-07-30T14:24:48;21.10;99.90
3713;DHT22;1872;51.406;6.856;2023-07-30T14:27:13;21.20;99.90
3713;DHT22;1872;51.406;6.856;2023-07-30T14:29:40;21.20;99.90
3713;DHT22;1872;51.406;6.856;2023-07-30T14:32:06;21.20;99.90
3713;DHT22;1872;51.406;6.856;2023-07-30T14:34:32;21.20;99.90
3713;DHT22;1872;51.406;6.856;2023-07-30T14:36:58;21.20;99.90
3713;DHT22;1872;51.406;6.856;2023-07-30T14:39:24;21.10;99.90
3713;DHT22;1872;51.406;6.856;2023-07-30T14:41:49;21.10;99.90
3713;DHT22;1872;51.406;6.856;2023-07-30T14:44:15;21.10;99.90
3713;DHT22;1872;51.406;6.856;2023-07-30T14:46:41;21.10;99.90
3713;DHT22;1872;51.406;6.856;2023-07-30T14:49:06;21.10;99.90
3713;DHT22;1872;51.406;6.856;2023-07-30T14:51:32;21.10;99.90
3713;DHT22;1872;51.406;6.856;2023-07-30T14:53:58;21.10;99.90
3713;DHT22;1872;51.406;6.856;2023-07-30T14:56:23;21.20;99.90
3713;DHT22;1872;51.406;6.856;2023-07-30T14:58:49;21.30;99.90
3713;DHT22;1872;51.406;6.856;2023-07-30T15:01:15;21.30;99.90
3713;DHT22;1872;51.406;6.856;2023-07-30T15:03:40;21.40;99.90
3713;DHT22;1872;51.406;6.856;2023-07-30T15:06:06;21.40;99.90
3713;DHT22;1872;51.406;6.856;2023-07-30T15:08:32;21.40;99.90
3713;DHT22;1872;51.406;6.856;2023-07-30T15:10:58;21.40;99.90
3713;DHT22;1872;51.406;6.856;2023-07-30T15:13:24;21.40;99.90
3713;DHT22;1872;51.406;6.856;2023-07-30T15:15:51;21.40;99.90
3713;DHT22;1872;51.406;6.856;2023-07-30T15:18:16;21.40;99.90
3713;DHT22;1872;51.406;6.856;2023-07-30T15:20:42;21.40;99.90
3713;DHT22;1872;51.406;6.856;2023-07-30T15:23:08;21.40;99.90
3713;DHT22;1872;51.406;6.856;2023-07-30T15:25:36;21.40;99.90
3713;DHT22;1872;51.406;6.856;2023-07-30T15:28:02;21.40;99.90
3713;DHT22;1872;51.406;6.856;2023-07-30T15:30:28;21.30;99.90
3713;DHT22;1872;51.406;6.856;2023-07-30T15:32:54;21.30;99.90
3713;DHT22;1872;51.406;6.856;2023-07-30T15:35:20;21.40;99.90
3713;DHT22;1872;51.406;6.856;2023-07-30T15:37:45;21.40;99.90
3713;DHT22;1872;51.406;6.856;2023-07-30T15:40:13;21.40;99.90
3713;DHT22;1872;51.406;6.856;2023-07-30T15:42:39;21.50;99.90
3713;DHT22;1872;51.406;6.856;2023-07-30T15:45:06;21.60;99.90
3713;DHT22;1872;51.406;6.856;2023-07-30T15:47:31;21.60;99.90
3713;DHT22;1872;51.406;6.856;2023-07-30T15:49:57;21.60;99.90
3713;DHT22;1872;51.406;6.856;2023-07-30T15:52:23;21.50;99.90
3713;DHT22;1872;51.406;6.856;2023-07-30T15:54:49;21.50;99.90
3713;DHT22;1872;51.406;6.856;2023-07-30T15:57:15;21.50;99.90
3713;DHT22;1872;51.406;6.856;2023-07-30T15:59:45;21.50;99.90
3713;DHT22;1872;51.406;6.856;2023-07-30T16:02:12;21.50;99.90
3713;DHT22;1872;51.406;6.856;2023-07-30T16:04:37;21.50;99.90